createdAt,value
2023-03-05T00:00:05.464Z,-2.35
2023-03-05T00:00:19.144Z,-2.34
2023-03-05T00:00:52.751Z,-2.36
2023-03-05T00:01:13.717Z,-2.36
2023-03-05T00:01:28.806Z,-2.37
2023-03-05T00:01:41.985Z,-2.37
2023-03-05T00:01:54.608Z,-2.37
2023-03-05T00:02:08.263Z,-2.37
2023-03-05T00:02:20.958Z,-2.38
2023-03-05T00:02:33.660Z,-2.38
2023-03-05T00:02:46.341Z,-2.39
2023-03-05T00:02:59.042Z,-2.39
2023-03-05T00:03:11.809Z,-2.40
2023-03-05T00:03:24.546Z,-2.39
2023-03-05T00:03:37.221Z,-2.38
2023-03-05T00:03:53.129Z,-2.39
2023-03-05T00:04:12.145Z,-2.40
2023-03-05T00:04:25.798Z,-2.43
2023-03-05T00:04:38.410Z,-2.41
2023-03-05T00:04:51.082Z,-2.41
2023-03-05T00:05:03.837Z,-2.41
2023-03-05T00:05:17.828Z,-2.41
2023-03-05T00:05:30.429Z,-2.41
2023-03-05T00:05:43.078Z,-2.43
2023-03-05T00:05:56.777Z,-2.42
2023-03-05T00:06:09.630Z,-2.42
2023-03-05T00:06:24.448Z,-2.44
2023-03-05T00:06:38.028Z,-2.43
2023-03-05T00:06:50.843Z,-2.43
2023-03-05T00:07:03.666Z,-2.43
2023-03-05T00:07:16.646Z,-2.43
2023-03-05T00:07:29.253Z,-2.44
2023-03-05T00:07:41.845Z,-2.45
2023-03-05T00:07:54.484Z,-2.45
2023-03-05T00:08:07.200Z,-2.46
2023-03-05T00:08:19.776Z,-2.47
2023-03-05T00:08:34.181Z,-2.47
2023-03-05T00:08:46.863Z,-2.47
2023-03-05T00:09:00.385Z,-2.48
2023-03-05T00:09:13.414Z,-2.49
2023-03-05T00:09:25.984Z,-2.49
2023-03-05T00:09:38.731Z,-2.50
2023-03-05T00:09:52.303Z,-2.50
2023-03-05T00:10:06.493Z,-2.51
2023-03-05T00:10:19.177Z,-2.51
2023-03-05T00:10:31.831Z,-2.51
2023-03-05T00:10:44.500Z,-2.52
2023-03-05T00:10:57.968Z,-2.53
2023-03-05T00:11:12.835Z,-2.53
2023-03-05T00:11:29.630Z,-2.54
2023-03-05T00:11:42.243Z,-2.54
2023-03-05T00:11:54.840Z,-2.54
2023-03-05T00:12:07.967Z,-2.55
2023-03-05T00:12:20.559Z,-2.55
2023-03-05T00:12:33.355Z,-2.56
2023-03-05T00:12:47.218Z,-2.57
2023-03-05T00:12:59.813Z,-2.57
2023-03-05T00:13:12.513Z,-2.58
2023-03-05T00:13:25.400Z,-2.59
2023-03-05T00:13:38.901Z,-2.58
2023-03-05T00:13:52.219Z,-2.59
2023-03-05T00:14:06.188Z,-2.60
2023-03-05T00:14:19.843Z,-2.60
2023-03-05T00:14:32.498Z,-2.61
2023-03-05T00:14:45.126Z,-2.61
2023-03-05T00:14:57.726Z,-2.61
2023-03-05T00:15:10.750Z,-2.62
2023-03-05T00:15:23.337Z,-2.61
2023-03-05T00:15:41.766Z,-2.61
2023-03-05T00:15:55.485Z,-2.60
2023-03-05T00:16:10.745Z,-2.61
2023-03-05T00:16:26.842Z,-2.60
2023-03-05T00:16:40.589Z,-2.60
2023-03-05T00:16:53.188Z,-2.60
2023-03-05T00:17:05.844Z,-2.61
2023-03-05T00:17:18.787Z,-2.61
2023-03-05T00:17:32.578Z,-2.60
2023-03-05T00:17:45.202Z,-2.59
2023-03-05T00:17:57.778Z,-2.60
2023-03-05T00:18:10.492Z,-2.60
2023-03-05T00:18:23.355Z,-2.61
2023-03-05T00:18:36.024Z,-2.62
2023-03-05T00:18:49.028Z,-2.61
2023-03-05T00:19:02.303Z,-2.61
2023-03-05T00:19:17.242Z,-2.62
2023-03-05T00:19:29.813Z,-2.61
2023-03-05T00:19:42.408Z,-2.61
2023-03-05T00:19:54.966Z,-2.63
2023-03-05T00:20:08.976Z,-2.64
2023-03-05T00:20:21.853Z,-2.63
2023-03-05T00:20:35.185Z,-2.62
2023-03-05T00:20:49.439Z,-2.62
2023-03-05T00:21:02.234Z,-2.62
2023-03-05T00:21:19.412Z,-2.62
2023-03-05T00:21:33.980Z,-2.61
2023-03-05T00:21:46.596Z,-2.60
2023-03-05T00:21:59.176Z,-2.61
2023-03-05T00:22:11.929Z,-2.61
2023-03-05T00:22:25.533Z,-2.61
2023-03-05T00:22:38.169Z,-2.61
2023-03-05T00:22:50.777Z,-2.61
2023-03-05T00:23:03.367Z,-2.61
2023-03-05T00:23:16.227Z,-2.61
2023-03-05T00:23:28.956Z,-2.61
2023-03-05T00:23:41.818Z,-2.60
2023-03-05T00:23:56.933Z,-2.61
2023-03-05T00:24:12.668Z,-2.61
2023-03-05T00:24:25.297Z,-2.60
2023-03-05T00:24:37.924Z,-2.62
2023-03-05T00:24:51.530Z,-2.61
2023-03-05T00:25:05.697Z,-2.62
2023-03-05T00:25:18.454Z,-2.62
2023-03-05T00:25:32.046Z,-2.63
2023-03-05T00:25:46.039Z,-2.62
2023-03-05T00:26:01.704Z,-2.63
2023-03-05T00:26:14.289Z,-2.63
2023-03-05T00:26:27.463Z,-2.63
2023-03-05T00:26:40.726Z,-2.64
2023-03-05T00:26:54.631Z,-2.64
2023-03-05T00:27:07.258Z,-2.65
2023-03-05T00:27:20.024Z,-2.67
2023-03-05T00:27:32.659Z,-2.67
2023-03-05T00:27:45.541Z,-2.67
2023-03-05T00:27:58.220Z,-2.67
2023-03-05T00:28:10.929Z,-2.67
2023-03-05T00:28:23.638Z,-2.66
2023-03-05T00:28:37.245Z,-2.66
2023-03-05T00:28:51.817Z,-2.67
2023-03-05T00:29:04.938Z,-2.67
2023-03-05T00:29:19.156Z,-2.68
2023-03-05T00:29:31.935Z,-2.68
2023-03-05T00:29:44.497Z,-2.68
2023-03-05T00:29:58.292Z,-2.69
2023-03-05T00:30:12.455Z,-2.69
2023-03-05T00:30:25.025Z,-2.70
2023-03-05T00:30:37.643Z,-2.71
2023-03-05T00:30:50.247Z,-2.71
2023-03-05T00:31:03.312Z,-2.73
2023-03-05T00:31:16.659Z,-2.72
2023-03-05T00:31:32.072Z,-2.73
2023-03-05T00:31:46.387Z,-2.74
2023-03-05T00:31:58.994Z,-2.73
2023-03-05T00:32:11.648Z,-2.72
2023-03-05T00:32:24.310Z,-2.73
2023-03-05T00:32:37.093Z,-2.74
2023-03-05T00:32:49.672Z,-2.74
2023-03-05T00:33:02.265Z,-2.73
2023-03-05T00:33:15.108Z,-2.74
2023-03-05T00:33:29.122Z,-2.74
2023-03-05T00:33:41.754Z,-2.74
2023-03-05T00:33:55.882Z,-2.76
2023-03-05T00:34:11.486Z,-2.76
2023-03-05T00:34:28.036Z,-2.76
2023-03-05T00:34:41.673Z,-2.77
2023-03-05T00:34:54.263Z,-2.78
2023-03-05T00:35:07.765Z,-2.78
2023-03-05T00:35:20.654Z,-2.78
2023-03-05T00:35:39.616Z,-2.80
2023-03-05T00:35:52.290Z,-2.80
2023-03-05T00:36:07.255Z,-2.80
2023-03-05T00:36:20.913Z,-2.81
2023-03-05T00:36:33.616Z,-2.81
2023-03-05T00:36:48.025Z,-2.82
2023-03-05T00:37:00.642Z,-2.83
2023-03-05T00:37:14.259Z,-2.84
2023-03-05T00:37:26.972Z,-2.83
2023-03-05T00:37:39.583Z,-2.83
2023-03-05T00:37:52.842Z,-2.84
2023-03-05T00:38:05.500Z,-2.84
2023-03-05T00:38:18.133Z,-2.86
2023-03-05T00:38:30.743Z,-2.85
2023-03-05T00:38:43.608Z,-2.86
2023-03-05T00:38:57.621Z,-2.86
2023-03-05T00:39:11.252Z,-2.87
2023-03-05T00:39:23.898Z,-2.89
2023-03-05T00:39:36.586Z,-2.88
2023-03-05T00:39:49.189Z,-2.89
2023-03-05T00:40:03.037Z,-2.89
2023-03-05T00:40:15.965Z,-2.89
2023-03-05T00:40:28.654Z,-2.89
2023-03-05T00:40:42.086Z,-2.88
2023-03-05T00:40:54.686Z,-2.89
2023-03-05T00:41:08.528Z,-2.89
2023-03-05T00:41:21.173Z,-2.89
2023-03-05T00:41:33.889Z,-2.89
2023-03-05T00:41:47.889Z,-2.89
2023-03-05T00:42:00.504Z,-2.88
2023-03-05T00:42:13.382Z,-2.87
2023-03-05T00:42:25.998Z,-2.87
2023-03-05T00:42:38.838Z,-2.88
2023-03-05T00:42:51.466Z,-2.87
2023-03-05T00:43:04.943Z,-2.87
2023-03-05T00:43:17.555Z,-2.86
2023-03-05T00:43:31.419Z,-2.86
2023-03-05T00:43:44.003Z,-2.86
2023-03-05T00:43:56.645Z,-2.85
2023-03-05T00:44:09.594Z,-2.84
2023-03-05T00:44:22.250Z,-2.84
2023-03-05T00:44:34.929Z,-2.85
2023-03-05T00:44:48.534Z,-2.84
2023-03-05T00:45:01.279Z,-2.84
2023-03-05T00:45:13.929Z,-2.83
2023-03-05T00:45:26.526Z,-2.84
2023-03-05T00:45:39.280Z,-2.84
2023-03-05T00:45:51.893Z,-2.84
2023-03-05T00:46:05.066Z,-2.82
2023-03-05T00:46:18.869Z,-2.82
2023-03-05T00:46:32.683Z,-2.83
2023-03-05T00:46:45.384Z,-2.82
2023-03-05T00:46:58.033Z,-2.81
2023-03-05T00:47:10.606Z,-2.80
2023-03-05T00:47:23.251Z,-2.80
2023-03-05T00:47:36.327Z,-2.79
2023-03-05T00:47:48.917Z,-2.78
2023-03-05T00:48:03.103Z,-2.78
2023-03-05T00:48:15.701Z,-2.76
2023-03-05T00:48:28.494Z,-2.77
2023-03-05T00:48:41.135Z,-2.76
2023-03-05T00:48:54.024Z,-2.76
2023-03-05T00:49:07.289Z,-2.75
2023-03-05T00:49:21.047Z,-2.74
2023-03-05T00:49:48.088Z,-2.74
2023-03-05T00:50:01.116Z,-2.74
2023-03-05T00:50:13.951Z,-2.74
2023-03-05T00:50:27.061Z,-2.74
2023-03-05T00:50:39.736Z,-2.73
2023-03-05T00:50:53.216Z,-2.75
2023-03-05T00:51:06.978Z,-2.74
2023-03-05T00:51:19.655Z,-2.74
2023-03-05T00:51:32.325Z,-2.74
2023-03-05T00:51:44.979Z,-2.73
2023-03-05T00:51:57.578Z,-2.73
2023-03-05T00:52:10.179Z,-2.73
2023-03-05T00:52:22.802Z,-2.73
2023-03-05T00:52:36.401Z,-2.74
2023-03-05T00:52:49.063Z,-2.72
2023-03-05T00:53:01.671Z,-2.72
2023-03-05T00:53:14.321Z,-2.71
2023-03-05T00:53:26.969Z,-2.71
2023-03-05T00:53:39.842Z,-2.72
2023-03-05T00:53:52.768Z,-2.69
2023-03-05T00:54:06.850Z,-2.72
2023-03-05T00:54:19.420Z,-2.71
2023-03-05T00:54:31.990Z,-2.70
2023-03-05T00:54:44.582Z,-2.69
2023-03-05T00:54:57.392Z,-2.69
2023-03-05T00:55:10.509Z,-2.69
2023-03-05T00:55:23.153Z,-2.69
2023-03-05T00:55:36.234Z,-2.69
2023-03-05T00:55:48.888Z,-2.69
2023-03-05T00:56:02.487Z,-2.68
2023-03-05T00:56:15.350Z,-2.69
2023-03-05T00:56:28.084Z,-2.68
2023-03-05T00:56:40.712Z,-2.68
2023-03-05T00:56:53.314Z,-2.68
2023-03-05T00:57:06.325Z,-2.68
2023-03-05T00:57:20.238Z,-2.68
2023-03-05T00:57:32.860Z,-2.67
2023-03-05T00:57:45.854Z,-2.69
2023-03-05T00:57:58.542Z,-2.68
2023-03-05T00:58:11.183Z,-2.69
2023-03-05T00:58:23.773Z,-2.68
2023-03-05T00:58:36.464Z,-2.68
2023-03-05T00:58:49.074Z,-2.68
2023-03-05T00:59:02.971Z,-2.68
2023-03-05T00:59:15.678Z,-2.69
2023-03-05T00:59:28.304Z,-2.69
2023-03-05T00:59:41.117Z,-2.70
2023-03-05T00:59:53.775Z,-2.70
2023-03-05T01:00:08.041Z,-2.69
2023-03-05T01:00:21.271Z,-2.69
2023-03-05T01:00:33.863Z,-2.69
2023-03-05T01:00:50.593Z,-2.69
2023-03-05T01:01:04.288Z,-2.70
2023-03-05T01:01:17.000Z,-2.70
2023-03-05T01:01:29.832Z,-2.69
2023-03-05T01:01:42.500Z,-2.70
2023-03-05T01:01:56.083Z,-2.70
2023-03-05T01:02:08.838Z,-2.70
2023-03-05T01:02:21.439Z,-2.72
2023-03-05T01:02:34.907Z,-2.69
2023-03-05T01:02:47.577Z,-2.69
2023-03-05T01:03:00.236Z,-2.68
2023-03-05T01:03:12.867Z,-2.70
2023-03-05T01:03:25.480Z,-2.68
2023-03-05T01:03:39.237Z,-2.68
2023-03-05T01:03:52.210Z,-2.69
2023-03-05T01:04:04.991Z,-2.69
2023-03-05T01:04:17.627Z,-2.69
2023-03-05T01:04:30.267Z,-2.72
2023-03-05T01:04:47.125Z,-2.71
2023-03-05T01:04:59.779Z,-2.72
2023-03-05T01:05:13.471Z,-2.72
2023-03-05T01:05:27.170Z,-2.72
2023-03-05T01:05:39.849Z,-2.74
2023-03-05T01:05:52.487Z,-2.72
2023-03-05T01:06:07.641Z,-2.74
2023-03-05T01:06:20.600Z,-2.73
2023-03-05T01:06:33.384Z,-2.74
2023-03-05T01:06:47.420Z,-2.73
2023-03-05T01:07:00.037Z,-2.74
2023-03-05T01:07:12.688Z,-2.75
2023-03-05T01:07:25.279Z,-2.74
2023-03-05T01:07:37.896Z,-2.74
2023-03-05T01:07:53.314Z,-2.75
2023-03-05T01:08:06.084Z,-2.75
2023-03-05T01:08:18.763Z,-2.75
2023-03-05T01:08:31.794Z,-2.76
2023-03-05T01:08:45.965Z,-2.76
2023-03-05T01:08:59.547Z,-2.75
2023-03-05T01:09:12.238Z,-2.75
2023-03-05T01:09:25.326Z,-2.75
2023-03-05T01:09:37.986Z,-2.75
2023-03-05T01:09:50.618Z,-2.75
2023-03-05T01:10:04.517Z,-2.75
2023-03-05T01:10:17.307Z,-2.75
2023-03-05T01:10:31.367Z,-2.75
2023-03-05T01:10:43.982Z,-2.75
2023-03-05T01:10:57.148Z,-2.76
2023-03-05T01:11:10.508Z,-2.77
2023-03-05T01:11:23.275Z,-2.76
2023-03-05T01:11:36.948Z,-2.76
2023-03-05T01:11:49.560Z,-2.76
2023-03-05T01:12:02.414Z,-2.76
2023-03-05T01:12:15.110Z,-2.76
2023-03-05T01:12:27.714Z,-2.76
2023-03-05T01:12:40.332Z,-2.76
2023-03-05T01:12:53.161Z,-2.76
2023-03-05T01:13:05.744Z,-2.77
2023-03-05T01:13:18.435Z,-2.76
2023-03-05T01:13:32.211Z,-2.75
2023-03-05T01:13:44.833Z,-2.75
2023-03-05T01:13:57.443Z,-2.75
2023-03-05T01:14:10.164Z,-2.75
2023-03-05T01:14:22.894Z,-2.75
2023-03-05T01:14:35.983Z,-2.75
2023-03-05T01:14:48.580Z,-2.75
2023-03-05T01:15:02.228Z,-2.75
2023-03-05T01:15:15.030Z,-2.74
2023-03-05T01:15:27.950Z,-2.76
2023-03-05T01:15:40.554Z,-2.75
2023-03-05T01:15:53.224Z,-2.76
2023-03-05T01:16:07.982Z,-2.76
2023-03-05T01:16:20.639Z,-2.75
2023-03-05T01:16:34.431Z,-2.76
2023-03-05T01:16:47.462Z,-2.76
2023-03-05T01:17:00.185Z,-2.76
2023-03-05T01:17:12.834Z,-2.75
2023-03-05T01:17:25.419Z,-2.75
2023-03-05T01:17:38.023Z,-2.76
2023-03-05T01:17:50.713Z,-2.76
2023-03-05T01:18:03.700Z,-2.75
2023-03-05T01:18:17.669Z,-2.75
2023-03-05T01:18:30.233Z,-2.74
2023-03-05T01:18:42.864Z,-2.74
2023-03-05T01:18:55.454Z,-2.74
2023-03-05T01:19:08.188Z,-2.74
2023-03-05T01:19:20.816Z,-2.74
2023-03-05T01:19:34.767Z,-2.74
2023-03-05T01:19:48.892Z,-2.74
2023-03-05T01:20:01.595Z,-2.74
2023-03-05T01:20:16.224Z,-2.75
2023-03-05T01:20:28.868Z,-2.74
2023-03-05T01:20:41.468Z,-2.74
2023-03-05T01:20:55.095Z,-2.73
2023-03-05T01:21:08.154Z,-2.73
2023-03-05T01:21:22.086Z,-2.72
2023-03-05T01:21:34.842Z,-2.72
2023-03-05T01:21:47.419Z,-2.70
2023-03-05T01:22:00.389Z,-2.68
2023-03-05T01:22:13.942Z,-2.67
2023-03-05T01:22:26.629Z,-2.68
2023-03-05T01:22:40.051Z,-2.68
2023-03-05T01:22:53.368Z,-2.66
2023-03-05T01:23:05.986Z,-2.66
2023-03-05T01:23:18.678Z,-2.67
2023-03-05T01:23:31.647Z,-2.66
2023-03-05T01:23:45.261Z,-2.66
2023-03-05T01:23:58.888Z,-2.66
2023-03-05T01:24:11.516Z,-2.66
2023-03-05T01:24:24.149Z,-2.65
2023-03-05T01:24:36.791Z,-2.65
2023-03-05T01:24:49.394Z,-2.65
2023-03-05T01:25:02.035Z,-2.65
2023-03-05T01:25:17.160Z,-2.64
2023-03-05T01:25:29.899Z,-2.64
2023-03-05T01:25:43.073Z,-2.63
2023-03-05T01:25:56.064Z,-2.63
2023-03-05T01:26:09.648Z,-2.64
2023-03-05T01:26:22.251Z,-2.62
2023-03-05T01:26:35.194Z,-2.63
2023-03-05T01:26:47.849Z,-2.63
2023-03-05T01:27:01.464Z,-2.62
2023-03-05T01:27:14.376Z,-2.62
2023-03-05T01:27:27.033Z,-2.61
2023-03-05T01:27:40.007Z,-2.62
2023-03-05T01:27:52.697Z,-2.61
2023-03-05T01:28:05.949Z,-2.62
2023-03-05T01:28:18.512Z,-2.62
2023-03-05T01:28:31.227Z,-2.62
2023-03-05T01:28:44.820Z,-2.62
2023-03-05T01:28:57.585Z,-2.61
2023-03-05T01:29:10.222Z,-2.62
2023-03-05T01:29:23.610Z,-2.62
2023-03-05T01:29:37.066Z,-2.62
2023-03-05T01:29:49.685Z,-2.62
2023-03-05T01:30:02.353Z,-2.62
2023-03-05T01:30:15.997Z,-2.61
2023-03-05T01:30:29.044Z,-2.61
2023-03-05T01:30:42.651Z,-2.59
2023-03-05T01:30:55.476Z,-2.59
2023-03-05T01:31:09.431Z,-2.60
2023-03-05T01:31:22.434Z,-2.61
2023-03-05T01:31:35.202Z,-2.60
2023-03-05T01:31:48.854Z,-2.60
2023-03-05T01:32:02.412Z,-2.59
2023-03-05T01:32:15.104Z,-2.59
2023-03-05T01:32:27.741Z,-2.59
2023-03-05T01:32:40.618Z,-2.60
2023-03-05T01:33:11.889Z,-2.59
2023-03-05T01:33:24.692Z,-2.60
2023-03-05T01:33:38.508Z,-2.61
2023-03-05T01:33:52.215Z,-2.61
2023-03-05T01:34:04.865Z,-2.59
2023-03-05T01:34:18.142Z,-2.58
2023-03-05T01:34:30.757Z,-2.58
2023-03-05T01:34:43.922Z,-2.58
2023-03-05T01:34:57.929Z,-2.57
2023-03-05T01:35:17.696Z,-2.57
2023-03-05T01:35:30.368Z,-2.56
2023-03-05T01:35:43.093Z,-2.57
2023-03-05T01:35:55.793Z,-2.56
2023-03-05T01:36:13.368Z,-2.55
2023-03-05T01:36:26.254Z,-2.55
2023-03-05T01:36:41.144Z,-2.55
2023-03-05T01:36:54.753Z,-2.54
2023-03-05T01:37:07.549Z,-2.54
2023-03-05T01:37:20.161Z,-2.54
2023-03-05T01:37:32.983Z,-2.54
2023-03-05T01:37:45.642Z,-2.52
2023-03-05T01:37:58.241Z,-2.52
2023-03-05T01:38:10.814Z,-2.53
2023-03-05T01:38:23.418Z,-2.53
2023-03-05T01:38:37.288Z,-2.53
2023-03-05T01:38:49.939Z,-2.54
2023-03-05T01:39:02.820Z,-2.53
2023-03-05T01:39:15.516Z,-2.53
2023-03-05T01:39:28.130Z,-2.53
2023-03-05T01:39:40.692Z,-2.53
2023-03-05T01:39:54.411Z,-2.53
2023-03-05T01:40:08.204Z,-2.53
2023-03-05T01:40:26.127Z,-2.53
2023-03-05T01:40:38.790Z,-2.52
2023-03-05T01:40:51.427Z,-2.52
2023-03-05T01:41:04.390Z,-2.52
2023-03-05T01:41:19.673Z,-2.53
2023-03-05T01:41:33.923Z,-2.53
2023-03-05T01:41:46.522Z,-2.53
2023-03-05T01:41:59.167Z,-2.53
2023-03-05T01:42:12.063Z,-2.52
2023-03-05T01:42:24.724Z,-2.52
2023-03-05T01:42:37.522Z,-2.52
2023-03-05T01:42:57.241Z,-2.51
2023-03-05T01:43:24.207Z,-2.52
2023-03-05T01:43:37.325Z,-2.52
2023-03-05T01:43:52.899Z,-2.52
2023-03-05T01:44:05.830Z,-2.52
2023-03-05T01:44:23.188Z,-2.52
2023-03-05T01:44:37.074Z,-2.53
2023-03-05T01:45:04.606Z,-2.53
2023-03-05T01:45:18.684Z,-2.53
2023-03-05T01:45:32.464Z,-2.54
2023-03-05T01:46:21.949Z,-2.53
2023-03-05T01:46:37.097Z,-2.53
2023-03-05T01:46:50.098Z,-2.55
2023-03-05T01:47:02.765Z,-2.54
2023-03-05T01:47:15.385Z,-2.56
2023-03-05T01:47:28.018Z,-2.55
2023-03-05T01:47:40.899Z,-2.55
2023-03-05T01:47:53.506Z,-2.54
2023-03-05T01:48:07.141Z,-2.55
2023-03-05T01:48:19.751Z,-2.56
2023-03-05T01:48:32.362Z,-2.55
2023-03-05T01:48:49.589Z,-2.56
2023-03-05T01:49:11.545Z,-2.55
2023-03-05T01:49:26.841Z,-2.56
2023-03-05T01:49:42.508Z,-2.56
2023-03-05T01:49:55.914Z,-2.56
2023-03-05T01:50:13.655Z,-2.56
2023-03-05T01:50:27.625Z,-2.55
2023-03-05T01:50:40.381Z,-2.56
2023-03-05T01:50:53.112Z,-2.56
2023-03-05T01:51:05.783Z,-2.57
2023-03-05T01:51:19.615Z,-2.56
2023-03-05T01:51:35.253Z,-2.57
2023-03-05T01:52:02.453Z,-2.56
2023-03-05T01:52:18.189Z,-2.57
2023-03-05T01:52:33.430Z,-2.58
2023-03-05T01:52:53.048Z,-2.57
2023-03-05T01:53:07.607Z,-2.58
2023-03-05T01:53:20.554Z,-2.58
2023-03-05T01:53:33.293Z,-2.57
2023-03-05T01:53:47.803Z,-2.58
2023-03-05T01:54:02.153Z,-2.57
2023-03-05T01:54:17.685Z,-2.57
2023-03-05T01:54:35.370Z,-2.56
2023-03-05T01:54:52.745Z,-2.56
2023-03-05T01:55:08.408Z,-2.56
2023-03-05T01:55:24.400Z,-2.56
2023-03-05T01:55:37.387Z,-2.56
2023-03-05T01:55:50.110Z,-2.57
2023-03-05T01:56:03.250Z,-2.57
2023-03-05T01:56:16.838Z,-2.56
2023-03-05T01:56:30.715Z,-2.58
2023-03-05T01:56:45.347Z,-2.56
2023-03-05T01:57:02.261Z,-2.58
2023-03-05T01:57:17.616Z,-2.56
2023-03-05T01:57:35.860Z,-2.56
2023-03-05T01:57:52.301Z,-2.57
2023-03-05T01:58:08.661Z,-2.56
2023-03-05T01:58:21.310Z,-2.55
2023-03-05T01:58:34.172Z,-2.55
2023-03-05T01:58:47.155Z,-2.55
2023-03-05T01:59:03.638Z,-2.55
2023-03-05T01:59:18.809Z,-2.55
2023-03-05T01:59:31.994Z,-2.55
2023-03-05T01:59:47.814Z,-2.55
2023-03-05T02:00:05.912Z,-2.55
2023-03-05T02:00:23.117Z,-2.55
2023-03-05T02:00:41.026Z,-2.55
2023-03-05T02:00:55.573Z,-2.55
2023-03-05T02:01:08.572Z,-2.55
2023-03-05T02:01:21.546Z,-2.55
2023-03-05T02:01:39.124Z,-2.54
2023-03-05T02:01:55.972Z,-2.56
2023-03-05T02:02:10.225Z,-2.55
2023-03-05T02:02:23.111Z,-2.55
2023-03-05T02:02:35.987Z,-2.57
2023-03-05T02:02:51.624Z,-2.56
2023-03-05T02:03:07.524Z,-2.56
2023-03-05T02:03:22.585Z,-2.56
2023-03-05T02:03:36.060Z,-2.56
2023-03-05T02:03:49.781Z,-2.56
2023-03-05T02:04:02.930Z,-2.56
2023-03-05T02:04:18.818Z,-2.57
2023-03-05T02:04:41.138Z,-2.55
2023-03-05T02:04:57.969Z,-2.55
2023-03-05T02:05:17.282Z,-2.55
2023-03-05T02:05:32.827Z,-2.55
2023-03-05T02:05:45.758Z,-2.55
2023-03-05T02:05:58.696Z,-2.54
2023-03-05T02:06:11.326Z,-2.55
2023-03-05T02:06:24.013Z,-2.55
2023-03-05T02:06:38.349Z,-2.55
2023-03-05T02:06:50.934Z,-2.56
2023-03-05T02:07:04.022Z,-2.56
2023-03-05T02:07:17.869Z,-2.56
2023-03-05T02:07:31.793Z,-2.56
2023-03-05T02:07:45.356Z,-2.57
2023-03-05T02:08:00.135Z,-2.57
2023-03-05T02:08:14.655Z,-2.58
2023-03-05T02:08:27.491Z,-2.59
2023-03-05T02:08:40.256Z,-2.59
2023-03-05T02:08:52.934Z,-2.59
2023-03-05T02:09:05.684Z,-2.58
2023-03-05T02:09:23.395Z,-2.60
2023-03-05T02:09:38.547Z,-2.59
2023-03-05T02:09:52.456Z,-2.60
2023-03-05T02:10:16.058Z,-2.60
2023-03-05T02:10:30.819Z,-2.60
2023-03-05T02:10:46.329Z,-2.61
2023-03-05T02:11:00.405Z,-2.60
2023-03-05T02:11:13.015Z,-2.61
2023-03-05T02:11:26.622Z,-2.62
2023-03-05T02:11:40.259Z,-2.62
2023-03-05T02:11:53.873Z,-2.63
2023-03-05T02:12:07.301Z,-2.63
2023-03-05T02:12:20.244Z,-2.64
2023-03-05T02:12:32.832Z,-2.63
2023-03-05T02:12:45.582Z,-2.64
2023-03-05T02:13:01.956Z,-2.64
2023-03-05T02:13:18.593Z,-2.65
2023-03-05T02:13:34.174Z,-2.65
2023-03-05T02:13:47.283Z,-2.66
2023-03-05T02:13:59.964Z,-2.65
2023-03-05T02:14:12.942Z,-2.66
2023-03-05T02:14:26.038Z,-2.66
2023-03-05T02:14:41.812Z,-2.67
2023-03-05T02:14:59.371Z,-2.66
2023-03-05T02:15:12.796Z,-2.68
2023-03-05T02:15:25.489Z,-2.68
2023-03-05T02:15:38.941Z,-2.68
2023-03-05T02:15:53.726Z,-2.68
2023-03-05T02:16:08.203Z,-2.70
2023-03-05T02:16:21.886Z,-2.69
2023-03-05T02:16:36.979Z,-2.70
2023-03-05T02:16:49.779Z,-2.70
2023-03-05T02:17:02.538Z,-2.73
2023-03-05T02:17:15.922Z,-2.72
2023-03-05T02:17:29.167Z,-2.72
2023-03-05T02:17:42.081Z,-2.72
2023-03-05T02:17:55.677Z,-2.73
2023-03-05T02:18:09.359Z,-2.73
2023-03-05T02:18:22.500Z,-2.73
2023-03-05T02:18:35.152Z,-2.73
2023-03-05T02:18:47.762Z,-2.73
2023-03-05T02:19:00.382Z,-2.74
2023-03-05T02:19:14.592Z,-2.73
2023-03-05T02:19:27.299Z,-2.74
2023-03-05T02:19:48.387Z,-2.74
2023-03-05T02:20:06.154Z,-2.74
2023-03-05T02:20:22.615Z,-2.74
2023-03-05T02:20:46.491Z,-2.75
2023-03-05T02:21:03.986Z,-2.75
2023-03-05T02:21:28.281Z,-2.75
2023-03-05T02:21:43.179Z,-2.75
2023-03-05T02:21:55.843Z,-2.76
2023-03-05T02:22:15.978Z,-2.75
2023-03-05T02:22:28.607Z,-2.76
2023-03-05T02:22:41.301Z,-2.76
2023-03-05T02:22:54.571Z,-2.76
2023-03-05T02:23:07.179Z,-2.77
2023-03-05T02:23:22.647Z,-2.76
2023-03-05T02:23:38.429Z,-2.76
2023-03-05T02:23:51.046Z,-2.77
2023-03-05T02:24:03.858Z,-2.77
2023-03-05T02:24:18.933Z,-2.77
2023-03-05T02:24:36.379Z,-2.77
2023-03-05T02:24:49.407Z,-2.77
2023-03-05T02:25:03.057Z,-2.77
2023-03-05T02:25:18.960Z,-2.77
2023-03-05T02:25:31.569Z,-2.77
2023-03-05T02:25:44.839Z,-2.77
2023-03-05T02:25:57.458Z,-2.76
2023-03-05T02:26:10.989Z,-2.76
2023-03-05T02:26:23.624Z,-2.77
2023-03-05T02:26:36.240Z,-2.76
2023-03-05T02:26:49.867Z,-2.76
2023-03-05T02:27:03.874Z,-2.76
2023-03-05T02:27:16.650Z,-2.76
2023-03-05T02:27:35.149Z,-2.75
2023-03-05T02:27:54.880Z,-2.75
2023-03-05T02:28:18.581Z,-2.75
2023-03-05T02:28:37.532Z,-2.73
2023-03-05T02:28:54.263Z,-2.73
2023-03-05T02:29:09.798Z,-2.73
2023-03-05T02:29:22.466Z,-2.72
2023-03-05T02:29:40.974Z,-2.74
2023-03-05T02:29:53.722Z,-2.70
2023-03-05T02:30:08.546Z,-2.70
2023-03-05T02:30:21.561Z,-2.69
2023-03-05T02:30:35.489Z,-2.68
2023-03-05T02:30:48.829Z,-2.68
2023-03-05T02:31:01.686Z,-2.69
2023-03-05T02:31:17.269Z,-2.68
2023-03-05T02:31:31.257Z,-2.68
2023-03-05T02:31:45.279Z,-2.67
2023-03-05T02:31:58.084Z,-2.67
2023-03-05T02:32:11.021Z,-2.67
2023-03-05T02:32:23.899Z,-2.67
2023-03-05T02:32:36.570Z,-2.67
2023-03-05T02:32:49.286Z,-2.67
2023-03-05T02:33:02.489Z,-2.66
2023-03-05T02:33:18.006Z,-2.65
2023-03-05T02:33:30.636Z,-2.64
2023-03-05T02:33:43.610Z,-2.64
2023-03-05T02:33:56.201Z,-2.65
2023-03-05T02:34:08.968Z,-2.64
2023-03-05T02:34:22.693Z,-2.65
2023-03-05T02:34:35.411Z,-2.63
2023-03-05T02:34:48.991Z,-2.64
2023-03-05T02:35:01.625Z,-2.63
2023-03-05T02:35:14.486Z,-2.64
2023-03-05T02:35:27.202Z,-2.64
2023-03-05T02:35:40.009Z,-2.63
2023-03-05T02:35:52.829Z,-2.64
2023-03-05T02:36:08.107Z,-2.64
2023-03-05T02:36:20.822Z,-2.63
2023-03-05T02:36:34.730Z,-2.63
2023-03-05T02:36:47.622Z,-2.63
2023-03-05T02:37:00.416Z,-2.62
2023-03-05T02:37:13.029Z,-2.62
2023-03-05T02:37:25.667Z,-2.61
2023-03-05T02:37:38.331Z,-2.62
2023-03-05T02:37:51.302Z,-2.61
2023-03-05T02:38:04.174Z,-2.61
2023-03-05T02:38:18.869Z,-2.61
2023-03-05T02:38:32.608Z,-2.61
2023-03-05T02:38:46.559Z,-2.60
2023-03-05T02:38:59.236Z,-2.59
2023-03-05T02:39:11.862Z,-2.59
2023-03-05T02:39:24.540Z,-2.59
2023-03-05T02:39:37.787Z,-2.59
2023-03-05T02:39:51.436Z,-2.59
2023-03-05T02:40:04.912Z,-2.57
2023-03-05T02:40:17.789Z,-2.57
2023-03-05T02:40:30.432Z,-2.56
2023-03-05T02:40:43.510Z,-2.56
2023-03-05T02:40:56.136Z,-2.55
2023-03-05T02:41:08.958Z,-2.55
2023-03-05T02:41:22.532Z,-2.55
2023-03-05T02:41:35.404Z,-2.54
2023-03-05T02:41:48.012Z,-2.55
2023-03-05T02:42:00.733Z,-2.55
2023-03-05T02:42:13.344Z,-2.53
2023-03-05T02:42:26.012Z,-2.53
2023-03-05T02:42:39.845Z,-2.52
2023-03-05T02:42:52.584Z,-2.52
2023-03-05T02:43:05.717Z,-2.52
2023-03-05T02:43:18.323Z,-2.50
2023-03-05T02:43:31.013Z,-2.51
2023-03-05T02:43:43.630Z,-2.51
2023-03-05T02:43:56.297Z,-2.50
2023-03-05T02:44:10.221Z,-2.50
2023-03-05T02:44:23.316Z,-2.52
2023-03-05T02:44:35.982Z,-2.50
2023-03-05T02:44:48.572Z,-2.49
2023-03-05T02:45:01.233Z,-2.49
2023-03-05T02:45:13.937Z,-2.49
2023-03-05T02:45:27.808Z,-2.48
2023-03-05T02:45:40.555Z,-2.48
2023-03-05T02:45:53.239Z,-2.47
2023-03-05T02:46:07.795Z,-2.48
2023-03-05T02:46:20.519Z,-2.46
2023-03-05T02:46:33.238Z,-2.47
2023-03-05T02:46:45.845Z,-2.46
2023-03-05T02:46:59.436Z,-2.46
2023-03-05T02:47:12.148Z,-2.45
2023-03-05T02:47:24.863Z,-2.45
2023-03-05T02:47:37.443Z,-2.45
2023-03-05T02:47:50.075Z,-2.45
2023-03-05T02:48:02.727Z,-2.43
2023-03-05T02:48:16.759Z,-2.44
2023-03-05T02:48:29.435Z,-2.43
2023-03-05T02:48:42.060Z,-2.43
2023-03-05T02:48:54.695Z,-2.43
2023-03-05T02:49:07.330Z,-2.42
2023-03-05T02:49:20.100Z,-2.42
2023-03-05T02:49:33.759Z,-2.41
2023-03-05T02:49:46.348Z,-2.40
2023-03-05T02:49:59.436Z,-2.43
2023-03-05T02:50:12.725Z,-2.40
2023-03-05T02:50:27.507Z,-2.40
2023-03-05T02:50:42.024Z,-2.39
2023-03-05T02:50:56.051Z,-2.38
2023-03-05T02:51:11.169Z,-2.38
2023-03-05T02:51:23.762Z,-2.38
2023-03-05T02:51:36.350Z,-2.38
2023-03-05T02:51:49.188Z,-2.36
2023-03-05T02:52:01.781Z,-2.36
2023-03-05T02:52:14.372Z,-2.35
2023-03-05T02:52:28.706Z,-2.36
2023-03-05T02:52:42.279Z,-2.35
2023-03-05T02:52:55.135Z,-2.35
2023-03-05T02:53:08.107Z,-2.34
2023-03-05T02:53:20.821Z,-2.34
2023-03-05T02:53:33.597Z,-2.34
2023-03-05T02:53:46.213Z,-2.34
2023-03-05T02:53:58.813Z,-2.34
2023-03-05T02:54:12.698Z,-2.34
2023-03-05T02:54:25.309Z,-2.34
2023-03-05T02:54:38.026Z,-2.34
2023-03-05T02:54:50.590Z,-2.34
2023-03-05T02:55:03.384Z,-2.34
2023-03-05T02:55:16.101Z,-2.33
2023-03-05T02:55:28.766Z,-2.32
2023-03-05T02:55:42.722Z,-2.31
2023-03-05T02:55:55.368Z,-2.33
2023-03-05T02:56:08.117Z,-2.32
2023-03-05T02:56:20.709Z,-2.31
2023-03-05T02:56:33.411Z,-2.32
2023-03-05T02:56:46.000Z,-2.31
2023-03-05T02:56:58.634Z,-2.32